sensor_id;sensor_type;location;lat;lon;timestamp;P1;durP1;ratioP1;P2;durP2;ratioP2
4742;SDS011;24293;48.154;7.748;2024-01-15T00:01:30;67.63;;;20.17;;
4742;SDS011;24293;48.154;7.748;2024-01-15T00:03:58;53.22;;;18.90;;
4742;SDS011;24293;48.154;7.748;2024-01-15T00:06:25;55.67;;;18.90;;
4742;SDS011;24293;48.154;7.748;2024-01-15T00:08:52;55.75;;;20.17;;
4742;SDS011;24293;48.154;7.748;2024-01-15T00:11:18;52.58;;;18.95;;
4742;SDS011;24293;48.154;7.748;2024-01-15T00:13:45;51.35;;;18.55;;
4742;SDS011;24293;48.154;7.748;2024-01-15T00:16:11;45.97;;;17.33;;
4742;SDS011;24293;48.154;7.748;2024-01-15T00:18:38;55.25;;;17.20;;
4742;SDS011;24293;48.154;7.748;2024-01-15T00:21:06;48.20;;;18.38;;
4742;SDS011;24293;48.154;7.748;2024-01-15T00:23:32;50.42;;;17.67;;
4742;SDS011;24293;48.154;7.748;2024-01-15T00:25:59;53.97;;;19.10;;
4742;SDS011;24293;48.154;7.748;2024-01-15T00:28:25;49.92;;;17.30;;
4742;SDS011;24293;48.154;7.748;2024-01-15T00:30:52;49.72;;;18.30;;
4742;SDS011;24293;48.154;7.748;2024-01-15T00:33:18;54.97;;;18.65;;
4742;SDS011;24293;48.154;7.748;2024-01-15T00:35:45;46.97;;;17.33;;
4742;SDS011;24293;48.154;7.748;2024-01-15T00:38:13;57.55;;;17.35;;
4742;SDS011;24293;48.154;7.748;2024-01-15T00:40:39;55.25;;;19.05;;
4742;SDS011;24293;48.154;7.748;2024-01-15T00:43:06;55.22;;;17.58;;
4742;SDS011;24293;48.154;7.748;2024-01-15T00:45:33;52.55;;;19.02;;
4742;SDS011;24293;48.154;7.748;2024-01-15T00:47:59;50.20;;;18.77;;
4742;SDS011;24293;48.154;7.748;2024-01-15T00:50:26;56.25;;;19.13;;
4742;SDS011;24293;48.154;7.748;2024-01-15T00:52:53;58.88;;;20.15;;
4742;SDS011;24293;48.154;7.748;2024-01-15T00:55:20;55.83;;;19.67;;
4742;SDS011;24293;48.154;7.748;2024-01-15T00:57:47;48.67;;;17.85;;
4742;SDS011;24293;48.154;7.748;2024-01-15T01:00:14;51.22;;;19.08;;
4742;SDS011;24293;48.154;7.748;2024-01-15T01:02:40;58.95;;;19.17;;
4742;SDS011;24293;48.154;7.748;2024-01-15T01:05:07;57.67;;;19.45;;
4742;SDS011;24293;48.154;7.748;2024-01-15T01:07:33;46.88;;;15.60;;
4742;SDS011;24293;48.154;7.748;2024-01-15T01:10:00;56.28;;;19.85;;
4742;SDS011;24293;48.154;7.748;2024-01-15T01:12:28;47.95;;;19.40;;
4742;SDS011;24293;48.154;7.748;2024-01-15T01:14:54;54.90;;;19.15;;
4742;SDS011;24293;48.154;7.748;2024-01-15T01:17:21;55.90;;;17.95;;
4742;SDS011;24293;48.154;7.748;2024-01-15T01:19:49;57.47;;;19.58;;
4742;SDS011;24293;48.154;7.748;2024-01-15T01:22:15;52.47;;;17.60;;
4742;SDS011;24293;48.154;7.748;2024-01-15T01:24:41;48.47;;;17.88;;
4742;SDS011;24293;48.154;7.748;2024-01-15T01:27:08;52.05;;;18.15;;
4742;SDS011;24293;48.154;7.748;2024-01-15T01:29:36;53.50;;;19.63;;
4742;SDS011;24293;48.154;7.748;2024-01-15T01:32:02;59.60;;;16.52;;
4742;SDS011;24293;48.154;7.748;2024-01-15T01:34:29;61.60;;;19.25;;
4742;SDS011;24293;48.154;7.748;2024-01-15T01:36:56;58.10;;;17.95;;
4742;SDS011;24293;48.154;7.748;2024-01-15T01:39:22;55.08;;;19.08;;
4742;SDS011;24293;48.154;7.748;2024-01-15T01:41:49;56.25;;;19.13;;
4742;SDS011;24293;48.154;7.748;2024-01-15T01:44:15;63.47;;;21.30;;
4742;SDS011;24293;48.154;7.748;2024-01-15T01:46:43;61.58;;;18.85;;
4742;SDS011;24293;48.154;7.748;2024-01-15T01:49:10;62.88;;;18.95;;
4742;SDS011;24293;48.154;7.748;2024-01-15T01:51:36;50.22;;;17.95;;
4742;SDS011;24293;48.154;7.748;2024-01-15T01:54:04;67.95;;;20.50;;
4742;SDS011;24293;48.154;7.748;2024-01-15T01:56:32;68.47;;;23.10;;
4742;SDS011;24293;48.154;7.748;2024-01-15T01:58:58;64.57;;;21.13;;
4742;SDS011;24293;48.154;7.748;2024-01-15T02:01:25;57.63;;;21.48;;
4742;SDS011;24293;48.154;7.748;2024-01-15T02:03:53;73.35;;;22.08;;
4742;SDS011;24293;48.154;7.748;2024-01-15T02:06:21;60.25;;;21.05;;
4742;SDS011;24293;48.154;7.748;2024-01-15T02:08:48;60.05;;;22.95;;
4742;SDS011;24293;48.154;7.748;2024-01-15T02:11:14;69.10;;;22.00;;
4742;SDS011;24293;48.154;7.748;2024-01-15T02:13:41;63.40;;;21.00;;
4742;SDS011;24293;48.154;7.748;2024-01-15T02:16:07;57.30;;;20.02;;
4742;SDS011;24293;48.154;7.748;2024-01-15T02:18:40;55.00;;;21.95;;
4742;SDS011;24293;48.154;7.748;2024-01-15T02:21:09;66.78;;;22.70;;
4742;SDS011;24293;48.154;7.748;2024-01-15T02:23:37;61.97;;;21.92;;
4742;SDS011;24293;48.154;7.748;2024-01-15T02:26:04;62.10;;;23.67;;
4742;SDS011;24293;48.154;7.748;2024-01-15T02:28:31;68.60;;;24.83;;
4742;SDS011;24293;48.154;7.748;2024-01-15T02:30:58;80.65;;;25.90;;
4742;SDS011;24293;48.154;7.748;2024-01-15T02:33:25;67.95;;;25.35;;
4742;SDS011;24293;48.154;7.748;2024-01-15T02:35:51;68.05;;;23.10;;
4742;SDS011;24293;48.154;7.748;2024-01-15T02:38:18;72.40;;;23.52;;
4742;SDS011;24293;48.154;7.748;2024-01-15T02:40:46;64.78;;;21.85;;
4742;SDS011;24293;48.154;7.748;2024-01-15T02:43:13;56.40;;;22.30;;
4742;SDS011;24293;48.154;7.748;2024-01-15T02:45:39;65.38;;;22.55;;
4742;SDS011;24293;48.154;7.748;2024-01-15T02:48:06;68.82;;;24.55;;
4742;SDS011;24293;48.154;7.748;2024-01-15T02:50:32;70.28;;;23.20;;
4742;SDS011;24293;48.154;7.748;2024-01-15T02:52:59;68.97;;;21.60;;
4742;SDS011;24293;48.154;7.748;2024-01-15T02:55:25;67.75;;;23.08;;
4742;SDS011;24293;48.154;7.748;2024-01-15T02:57:55;61.22;;;21.90;;
4742;SDS011;24293;48.154;7.748;2024-01-15T03:00:22;69.28;;;22.85;;
4742;SDS011;24293;48.154;7.748;2024-01-15T03:02:49;76.50;;;23.17;;
4742;SDS011;24293;48.154;7.748;2024-01-15T03:05:16;63.50;;;22.92;;
4742;SDS011;24293;48.154;7.748;2024-01-15T03:07:43;65.18;;;22.90;;
4742;SDS011;24293;48.154;7.748;2024-01-15T03:10:09;69.43;;;21.38;;
4742;SDS011;24293;48.154;7.748;2024-01-15T03:12:36;83.47;;;23.48;;
4742;SDS011;24293;48.154;7.748;2024-01-15T03:15:04;79.43;;;24.45;;
4742;SDS011;24293;48.154;7.748;2024-01-15T03:17:31;71.85;;;23.15;;
4742;SDS011;24293;48.154;7.748;2024-01-15T03:19:57;74.40;;;21.13;;
4742;SDS011;24293;48.154;7.748;2024-01-15T03:22:24;67.47;;;21.90;;
4742;SDS011;24293;48.154;7.748;2024-01-15T03:24:50;74.55;;;21.92;;
4742;SDS011;24293;48.154;7.748;2024-01-15T03:27:17;74.20;;;21.65;;
4742;SDS011;24293;48.154;7.748;2024-01-15T03:29:43;63.70;;;20.95;;
4742;SDS011;24293;48.154;7.748;2024-01-15T03:32:11;75.05;;;24.17;;
4742;SDS011;24293;48.154;7.748;2024-01-15T03:34:38;72.97;;;22.77;;
4742;SDS011;24293;48.154;7.748;2024-01-15T03:37:04;65.93;;;22.55;;
4742;SDS011;24293;48.154;7.748;2024-01-15T03:39:30;70.10;;;21.83;;
4742;SDS011;24293;48.154;7.748;2024-01-15T03:41:57;70.47;;;22.65;;
4742;SDS011;24293;48.154;7.748;2024-01-15T03:44:23;64.80;;;20.40;;
4742;SDS011;24293;48.154;7.748;2024-01-15T03:46:50;65.22;;;23.38;;
4742;SDS011;24293;48.154;7.748;2024-01-15T03:49:18;67.10;;;21.75;;
4742;SDS011;24293;48.154;7.748;2024-01-15T03:51:44;71.10;;;21.90;;
4742;SDS011;24293;48.154;7.748;2024-01-15T03:54:11;68.30;;;22.50;;
4742;SDS011;24293;48.154;7.748;2024-01-15T03:56:37;57.28;;;20.52;;
4742;SDS011;24293;48.154;7.748;2024-01-15T03:59:04;66.35;;;19.40;;
4742;SDS011;24293;48.154;7.748;2024-01-15T04:01:30;68.18;;;21.13;;
4742;SDS011;24293;48.154;7.748;2024-01-15T04:03:57;64.63;;;20.73;;
4742;SDS011;24293;48.154;7.748;2024-01-15T04:06:24;70.53;;;22.58;;
4742;SDS011;24293;48.154;7.748;2024-01-15T04:08:51;64.75;;;20.90;;
4742;SDS011;24293;48.154;7.748;2024-01-15T04:11:17;61.25;;;20.15;;
4742;SDS011;24293;48.154;7.748;2024-01-15T04:13:44;58.85;;;20.25;;
4742;SDS011;24293;48.154;7.748;2024-01-15T04:16:10;68.30;;;22.45;;
4742;SDS011;24293;48.154;7.748;2024-01-15T04:18:37;74.03;;;21.60;;
4742;SDS011;24293;48.154;7.748;2024-01-15T04:21:04;63.72;;;21.92;;
4742;SDS011;24293;48.154;7.748;2024-01-15T04:23:32;71.25;;;22.77;;
4742;SDS011;24293;48.154;7.748;2024-01-15T04:25:58;72.13;;;21.15;;
4742;SDS011;24293;48.154;7.748;2024-01-15T04:28:25;72.32;;;23.58;;
4742;SDS011;24293;48.154;7.748;2024-01-15T04:30:51;68.38;;;22.55;;
4742;SDS011;24293;48.154;7.748;2024-01-15T04:33:18;79.78;;;26.50;;
4742;SDS011;24293;48.154;7.748;2024-01-15T04:35:44;69.93;;;24.73;;
4742;SDS011;24293;48.154;7.748;2024-01-15T04:38:11;68.45;;;21.55;;
4742;SDS011;24293;48.154;7.748;2024-01-15T04:40:38;65.40;;;23.40;;
4742;SDS011;24293;48.154;7.748;2024-01-15T04:43:06;64.68;;;23.42;;
4742;SDS011;24293;48.154;7.748;2024-01-15T04:45:32;65.97;;;23.02;;
4742;SDS011;24293;48.154;7.748;2024-01-15T04:47:59;75.82;;;22.60;;
4742;SDS011;24293;48.154;7.748;2024-01-15T04:50:25;70.85;;;22.98;;
4742;SDS011;24293;48.154;7.748;2024-01-15T04:52:51;61.03;;;21.73;;
4742;SDS011;24293;48.154;7.748;2024-01-15T04:55:18;74.60;;;23.15;;
4742;SDS011;24293;48.154;7.748;2024-01-15T04:57:46;67.10;;;22.00;;
4742;SDS011;24293;48.154;7.748;2024-01-15T05:00:12;73.22;;;22.08;;
4742;SDS011;24293;48.154;7.748;2024-01-15T05:02:39;73.53;;;25.20;;
4742;SDS011;24293;48.154;7.748;2024-01-15T05:05:06;71.28;;;25.67;;
4742;SDS011;24293;48.154;7.748;2024-01-15T05:07:32;71.63;;;23.40;;
4742;SDS011;24293;48.154;7.748;2024-01-15T05:09:59;72.90;;;24.35;;
4742;SDS011;24293;48.154;7.748;2024-01-15T05:12:25;72.32;;;23.85;;
4742;SDS011;24293;48.154;7.748;2024-01-15T05:14:53;67.90;;;24.52;;
4742;SDS011;24293;48.154;7.748;2024-01-15T05:17:20;67.60;;;22.52;;
4742;SDS011;24293;48.154;7.748;2024-01-15T05:19:46;65.80;;;21.45;;
4742;SDS011;24293;48.154;7.748;2024-01-15T05:22:13;62.60;;;20.17;;
4742;SDS011;24293;48.154;7.748;2024-01-15T05:24:39;76.00;;;24.50;;
4742;SDS011;24293;48.154;7.748;2024-01-15T05:27:05;69.10;;;21.90;;
4742;SDS011;24293;48.154;7.748;2024-01-15T05:29:32;66.60;;;20.85;;
4742;SDS011;24293;48.154;7.748;2024-01-15T05:32:00;71.55;;;21.70;;
4742;SDS011;24293;48.154;7.748;2024-01-15T05:34:26;66.35;;;21.45;;
4742;SDS011;24293;48.154;7.748;2024-01-15T05:36:53;75.38;;;23.13;;
4742;SDS011;24293;48.154;7.748;2024-01-15T05:39:19;71.20;;;24.33;;
4742;SDS011;24293;48.154;7.748;2024-01-15T05:41:46;79.03;;;26.73;;
4742;SDS011;24293;48.154;7.748;2024-01-15T05:44:12;78.43;;;25.70;;
4742;SDS011;24293;48.154;7.748;2024-01-15T05:46:39;76.00;;;28.73;;
4742;SDS011;24293;48.154;7.748;2024-01-15T05:49:07;66.50;;;24.90;;
4742;SDS011;24293;48.154;7.748;2024-01-15T05:51:33;71.63;;;24.35;;
4742;SDS011;24293;48.154;7.748;2024-01-15T05:54:00;80.60;;;26.27;;
4742;SDS011;24293;48.154;7.748;2024-01-15T05:56:26;68.68;;;24.40;;
4742;SDS011;24293;48.154;7.748;2024-01-15T05:58:53;75.05;;;24.17;;
4742;SDS011;24293;48.154;7.748;2024-01-15T06:01:19;67.55;;;23.70;;
4742;SDS011;24293;48.154;7.748;2024-01-15T06:03:46;77.00;;;24.92;;
4742;SDS011;24293;48.154;7.748;2024-01-15T06:06:14;69.72;;;22.45;;
4742;SDS011;24293;48.154;7.748;2024-01-15T06:08:40;70.47;;;24.73;;
4742;SDS011;24293;48.154;7.748;2024-01-15T06:11:07;68.35;;;24.30;;
4742;SDS011;24293;48.154;7.748;2024-01-15T06:13:33;72.68;;;26.70;;
4742;SDS011;24293;48.154;7.748;2024-01-15T06:16:00;72.38;;;23.33;;
4742;SDS011;24293;48.154;7.748;2024-01-15T06:18:26;76.28;;;22.80;;
4742;SDS011;24293;48.154;7.748;2024-01-15T06:20:53;64.90;;;20.45;;
4742;SDS011;24293;48.154;7.748;2024-01-15T06:23:21;62.50;;;21.77;;
4742;SDS011;24293;48.154;7.748;2024-01-15T06:25:47;70.68;;;21.23;;
4742;SDS011;24293;48.154;7.748;2024-01-15T06:28:14;77.35;;;24.38;;
4742;SDS011;24293;48.154;7.748;2024-01-15T06:30:40;68.45;;;23.65;;
4742;SDS011;24293;48.154;7.748;2024-01-15T06:33:07;72.40;;;21.60;;
4742;SDS011;24293;48.154;7.748;2024-01-15T06:35:33;66.60;;;20.70;;
4742;SDS011;24293;48.154;7.748;2024-01-15T06:38:00;72.60;;;22.38;;
4742;SDS011;24293;48.154;7.748;2024-01-15T06:40:28;56.30;;;20.75;;
4742;SDS011;24293;48.154;7.748;2024-01-15T06:42:54;54.42;;;18.98;;
4742;SDS011;24293;48.154;7.748;2024-01-15T06:45:21;58.65;;;20.95;;
4742;SDS011;24293;48.154;7.748;2024-01-15T06:47:47;59.92;;;20.73;;
4742;SDS011;24293;48.154;7.748;2024-01-15T06:50:14;71.63;;;23.27;;
4742;SDS011;24293;48.154;7.748;2024-01-15T06:52:40;47.80;;;19.00;;
4742;SDS011;24293;48.154;7.748;2024-01-15T06:55:07;57.42;;;20.77;;
4742;SDS011;24293;48.154;7.748;2024-01-15T06:57:35;59.42;;;20.08;;
4742;SDS011;24293;48.154;7.748;2024-01-15T07:00:02;54.35;;;18.75;;
4742;SDS011;24293;48.154;7.748;2024-01-15T07:02:32;61.20;;;18.50;;
4742;SDS011;24293;48.154;7.748;2024-01-15T07:04:59;47.65;;;17.83;;
4742;SDS011;24293;48.154;7.748;2024-01-15T07:07:25;47.40;;;17.50;;
4742;SDS011;24293;48.154;7.748;2024-01-15T07:09:54;48.42;;;16.73;;
4742;SDS011;24293;48.154;7.748;2024-01-15T07:12:21;60.95;;;17.80;;
4742;SDS011;24293;48.154;7.748;2024-01-15T07:14:49;50.83;;;18.63;;
4742;SDS011;24293;48.154;7.748;2024-01-15T07:17:15;56.42;;;17.85;;
4742;SDS011;24293;48.154;7.748;2024-01-15T07:19:42;58.72;;;18.33;;
4742;SDS011;24293;48.154;7.748;2024-01-15T07:22:08;51.25;;;17.05;;
4742;SDS011;24293;48.154;7.748;2024-01-15T07:24:35;55.13;;;17.55;;
4742;SDS011;24293;48.154;7.748;2024-01-15T07:27:01;54.75;;;15.98;;
4742;SDS011;24293;48.154;7.748;2024-01-15T07:29:29;45.33;;;17.33;;
4742;SDS011;24293;48.154;7.748;2024-01-15T07:31:59;54.20;;;16.40;;
4742;SDS011;24293;48.154;7.748;2024-01-15T07:34:25;54.08;;;16.70;;
4742;SDS011;24293;48.154;7.748;2024-01-15T07:36:52;46.55;;;15.43;;
4742;SDS011;24293;48.154;7.748;2024-01-15T07:39:18;40.40;;;15.00;;
4742;SDS011;24293;48.154;7.748;2024-01-15T07:41:45;44.63;;;14.45;;
4742;SDS011;24293;48.154;7.748;2024-01-15T07:44:11;37.90;;;14.60;;
4742;SDS011;24293;48.154;7.748;2024-01-15T07:46:38;43.45;;;13.38;;
4742;SDS011;24293;48.154;7.748;2024-01-15T07:49:07;39.08;;;14.45;;
4742;SDS011;24293;48.154;7.748;2024-01-15T07:51:33;32.72;;;12.52;;
4742;SDS011;24293;48.154;7.748;2024-01-15T07:54:00;38.70;;;13.95;;
4742;SDS011;24293;48.154;7.748;2024-01-15T07:56:26;33.08;;;13.35;;
4742;SDS011;24293;48.154;7.748;2024-01-15T07:58:53;37.03;;;13.93;;
4742;SDS011;24293;48.154;7.748;2024-01-15T08:01:20;39.40;;;12.48;;
4742;SDS011;24293;48.154;7.748;2024-01-15T08:03:46;34.38;;;13.02;;
4742;SDS011;24293;48.154;7.748;2024-01-15T08:06:14;36.25;;;13.40;;
4742;SDS011;24293;48.154;7.748;2024-01-15T08:08:41;38.85;;;14.48;;
4742;SDS011;24293;48.154;7.748;2024-01-15T08:11:07;42.13;;;13.05;;
4742;SDS011;24293;48.154;7.748;2024-01-15T08:13:34;42.85;;;12.93;;
4742;SDS011;24293;48.154;7.748;2024-01-15T08:16:00;40.22;;;12.75;;
4742;SDS011;24293;48.154;7.748;2024-01-15T08:18:27;36.05;;;12.85;;
4742;SDS011;24293;48.154;7.748;2024-01-15T08:20:53;34.35;;;12.55;;
4742;SDS011;24293;48.154;7.748;2024-01-15T08:23:21;38.35;;;12.32;;
4742;SDS011;24293;48.154;7.748;2024-01-15T08:25:47;29.27;;;10.45;;
4742;SDS011;24293;48.154;7.748;2024-01-15T08:28:15;30.27;;;10.52;;
4742;SDS011;24293;48.154;7.748;2024-01-15T08:30:42;33.28;;;11.90;;
4742;SDS011;24293;48.154;7.748;2024-01-15T08:33:08;30.35;;;11.02;;
4742;SDS011;24293;48.154;7.748;2024-01-15T08:35:35;30.83;;;10.77;;
4742;SDS011;24293;48.154;7.748;2024-01-15T08:38:03;25.08;;;9.52;;
4742;SDS011;24293;48.154;7.748;2024-01-15T08:40:31;24.08;;;9.05;;
4742;SDS011;24293;48.154;7.748;2024-01-15T08:42:57;27.60;;;9.40;;
4742;SDS011;24293;48.154;7.748;2024-01-15T08:45:24;22.63;;;9.10;;
4742;SDS011;24293;48.154;7.748;2024-01-15T08:47:50;26.48;;;9.85;;
4742;SDS011;24293;48.154;7.748;2024-01-15T08:50:17;25.23;;;9.40;;
4742;SDS011;24293;48.154;7.748;2024-01-15T08:52:43;22.15;;;8.25;;
4742;SDS011;24293;48.154;7.748;2024-01-15T08:55:11;28.15;;;10.15;;
4742;SDS011;24293;48.154;7.748;2024-01-15T08:57:39;26.90;;;9.40;;
4742;SDS011;24293;48.154;7.748;2024-01-15T09:00:06;24.60;;;10.45;;
4742;SDS011;24293;48.154;7.748;2024-01-15T09:02:34;27.17;;;9.98;;
4742;SDS011;24293;48.154;7.748;2024-01-15T09:05:00;29.60;;;9.70;;
4742;SDS011;24293;48.154;7.748;2024-01-15T09:07:29;28.83;;;9.98;;
4742;SDS011;24293;48.154;7.748;2024-01-15T09:09:56;23.27;;;10.65;;
4742;SDS011;24293;48.154;7.748;2024-01-15T09:12:24;27.63;;;10.45;;
4742;SDS011;24293;48.154;7.748;2024-01-15T09:14:52;23.95;;;8.90;;
4742;SDS011;24293;48.154;7.748;2024-01-15T09:17:19;31.00;;;11.50;;
4742;SDS011;24293;48.154;7.748;2024-01-15T09:19:45;26.27;;;10.40;;
4742;SDS011;24293;48.154;7.748;2024-01-15T09:22:12;26.88;;;11.18;;
4742;SDS011;24293;48.154;7.748;2024-01-15T09:24:40;26.00;;;11.00;;
4742;SDS011;24293;48.154;7.748;2024-01-15T09:27:06;29.02;;;10.40;;
4742;SDS011;24293;48.154;7.748;2024-01-15T09:29:33;32.20;;;11.38;;
4742;SDS011;24293;48.154;7.748;2024-01-15T09:32:03;29.92;;;11.82;;
4742;SDS011;24293;48.154;7.748;2024-01-15T09:34:29;35.67;;;12.95;;
4742;SDS011;24293;48.154;7.748;2024-01-15T09:36:56;29.83;;;11.55;;
4742;SDS011;24293;48.154;7.748;2024-01-15T09:39:22;30.00;;;11.63;;
4742;SDS011;24293;48.154;7.748;2024-01-15T09:41:49;36.00;;;11.93;;
4742;SDS011;24293;48.154;7.748;2024-01-15T09:44:16;34.28;;;13.25;;
4742;SDS011;24293;48.154;7.748;2024-01-15T09:46:43;31.25;;;12.15;;
4742;SDS011;24293;48.154;7.748;2024-01-15T09:49:11;33.90;;;13.15;;
4742;SDS011;24293;48.154;7.748;2024-01-15T09:51:38;37.00;;;13.82;;
4742;SDS011;24293;48.154;7.748;2024-01-15T09:54:05;30.92;;;12.60;;
4742;SDS011;24293;48.154;7.748;2024-01-15T09:56:32;33.40;;;13.48;;
4742;SDS011;24293;48.154;7.748;2024-01-15T09:58:58;38.88;;;14.52;;
4742;SDS011;24293;48.154;7.748;2024-01-15T10:01:26;38.40;;;13.20;;
4742;SDS011;24293;48.154;7.748;2024-01-15T10:03:52;31.52;;;13.30;;
4742;SDS011;24293;48.154;7.748;2024-01-15T10:06:22;38.13;;;14.50;;
4742;SDS011;24293;48.154;7.748;2024-01-15T10:08:51;33.83;;;13.20;;
4742;SDS011;24293;48.154;7.748;2024-01-15T10:11:18;34.28;;;13.18;;
4742;SDS011;24293;48.154;7.748;2024-01-15T10:13:44;39.58;;;14.73;;
4742;SDS011;24293;48.154;7.748;2024-01-15T10:16:11;35.47;;;13.07;;
4742;SDS011;24293;48.154;7.748;2024-01-15T10:18:38;40.45;;;12.63;;
4742;SDS011;24293;48.154;7.748;2024-01-15T10:21:05;37.33;;;13.80;;
4742;SDS011;24293;48.154;7.748;2024-01-15T10:23:34;40.92;;;16.15;;
4742;SDS011;24293;48.154;7.748;2024-01-15T10:26:01;33.10;;;13.20;;
4742;SDS011;24293;48.154;7.748;2024-01-15T10:28:28;45.22;;;16.40;;
4742;SDS011;24293;48.154;7.748;2024-01-15T10:30:57;36.90;;;14.00;;
4742;SDS011;24293;48.154;7.748;2024-01-15T10:33:24;46.50;;;15.27;;
4742;SDS011;24293;48.154;7.748;2024-01-15T10:35:53;35.55;;;14.38;;
4742;SDS011;24293;48.154;7.748;2024-01-15T10:38:20;39.85;;;15.07;;
4742;SDS011;24293;48.154;7.748;2024-01-15T10:40:48;36.25;;;14.15;;
4742;SDS011;24293;48.154;7.748;2024-01-15T10:43:17;40.88;;;15.68;;
4742;SDS011;24293;48.154;7.748;2024-01-15T10:45:44;41.40;;;15.90;;
4742;SDS011;24293;48.154;7.748;2024-01-15T10:48:10;40.00;;;14.52;;
4742;SDS011;24293;48.154;7.748;2024-01-15T10:50:37;44.22;;;15.13;;
4742;SDS011;24293;48.154;7.748;2024-01-15T10:53:04;41.00;;;16.80;;
4742;SDS011;24293;48.154;7.748;2024-01-15T10:55:30;43.38;;;15.10;;
4742;SDS011;24293;48.154;7.748;2024-01-15T10:57:59;36.83;;;14.23;;
4742;SDS011;24293;48.154;7.748;2024-01-15T11:00:26;39.00;;;15.73;;
4742;SDS011;24293;48.154;7.748;2024-01-15T11:02:52;46.13;;;16.73;;
4742;SDS011;24293;48.154;7.748;2024-01-15T11:05:20;34.33;;;14.57;;
4742;SDS011;24293;48.154;7.748;2024-01-15T11:07:47;45.55;;;15.40;;
4742;SDS011;24293;48.154;7.748;2024-01-15T11:12:55;37.45;;;14.07;;
4742;SDS011;24293;48.154;7.748;2024-01-15T11:15:23;33.97;;;13.80;;
4742;SDS011;24293;48.154;7.748;2024-01-15T11:17:57;44.20;;;15.13;;
4742;SDS011;24293;48.154;7.748;2024-01-15T11:20:24;39.53;;;14.23;;
4742;SDS011;24293;48.154;7.748;2024-01-15T11:22:50;35.95;;;14.52;;
4742;SDS011;24293;48.154;7.748;2024-01-15T11:25:18;34.83;;;14.57;;
4742;SDS011;24293;48.154;7.748;2024-01-15T11:27:45;43.92;;;15.43;;
4742;SDS011;24293;48.154;7.748;2024-01-15T11:30:12;37.00;;;14.65;;
4742;SDS011;24293;48.154;7.748;2024-01-15T11:32:40;38.00;;;15.05;;
4742;SDS011;24293;48.154;7.748;2024-01-15T11:35:07;35.70;;;13.85;;
4742;SDS011;24293;48.154;7.748;2024-01-15T11:40:20;30.90;;;14.00;;
4742;SDS011;24293;48.154;7.748;2024-01-15T11:42:47;24.23;;;10.23;;
4742;SDS011;24293;48.154;7.748;2024-01-15T11:45:15;28.33;;;10.20;;
4742;SDS011;24293;48.154;7.748;2024-01-15T11:50:32;19.90;;;8.48;;
4742;SDS011;24293;48.154;7.748;2024-01-15T11:52:59;23.83;;;9.95;;
4742;SDS011;24293;48.154;7.748;2024-01-15T11:55:26;25.58;;;10.95;;
4742;SDS011;24293;48.154;7.748;2024-01-15T11:57:54;20.45;;;8.35;;
4742;SDS011;24293;48.154;7.748;2024-01-15T12:00:22;20.73;;;10.23;;
4742;SDS011;24293;48.154;7.748;2024-01-15T12:02:49;23.30;;;8.60;;
4742;SDS011;24293;48.154;7.748;2024-01-15T12:05:17;23.85;;;9.65;;
4742;SDS011;24293;48.154;7.748;2024-01-15T12:07:45;20.20;;;9.00;;
4742;SDS011;24293;48.154;7.748;2024-01-15T12:10:13;29.80;;;11.80;;
4742;SDS011;24293;48.154;7.748;2024-01-15T12:12:43;39.65;;;15.32;;
4742;SDS011;24293;48.154;7.748;2024-01-15T12:15:12;28.30;;;12.00;;
4742;SDS011;24293;48.154;7.748;2024-01-15T12:17:38;22.15;;;9.73;;
4742;SDS011;24293;48.154;7.748;2024-01-15T12:20:05;27.05;;;10.75;;
4742;SDS011;24293;48.154;7.748;2024-01-15T12:22:32;34.95;;;13.00;;
4742;SDS011;24293;48.154;7.748;2024-01-15T12:25:00;26.70;;;11.02;;
4742;SDS011;24293;48.154;7.748;2024-01-15T12:27:26;24.77;;;9.50;;
4742;SDS011;24293;48.154;7.748;2024-01-15T12:29:53;26.08;;;10.80;;
4742;SDS011;24293;48.154;7.748;2024-01-15T12:32:19;23.83;;;10.32;;
4742;SDS011;24293;48.154;7.748;2024-01-15T12:34:46;23.17;;;11.45;;
4742;SDS011;24293;48.154;7.748;2024-01-15T12:37:13;23.75;;;10.27;;
4742;SDS011;24293;48.154;7.748;2024-01-15T12:39:40;26.10;;;10.48;;
4742;SDS011;24293;48.154;7.748;2024-01-15T12:42:10;37.95;;;15.07;;
4742;SDS011;24293;48.154;7.748;2024-01-15T12:44:36;26.80;;;11.43;;
4742;SDS011;24293;48.154;7.748;2024-01-15T12:47:04;28.48;;;12.02;;
4742;SDS011;24293;48.154;7.748;2024-01-15T12:49:31;29.50;;;12.00;;
4742;SDS011;24293;48.154;7.748;2024-01-15T12:51:57;25.02;;;9.98;;
4742;SDS011;24293;48.154;7.748;2024-01-15T12:54:24;25.23;;;10.25;;
4742;SDS011;24293;48.154;7.748;2024-01-15T12:56:51;27.77;;;9.23;;
4742;SDS011;24293;48.154;7.748;2024-01-15T12:59:19;32.88;;;10.32;;
4742;SDS011;24293;48.154;7.748;2024-01-15T13:01:45;35.38;;;12.50;;
4742;SDS011;24293;48.154;7.748;2024-01-15T13:04:20;31.85;;;11.80;;
4742;SDS011;24293;48.154;7.748;2024-01-15T13:06:47;23.65;;;11.18;;
4742;SDS011;24293;48.154;7.748;2024-01-15T13:09:14;37.00;;;10.88;;
4742;SDS011;24293;48.154;7.748;2024-01-15T13:11:41;28.33;;;11.27;;
4742;SDS011;24293;48.154;7.748;2024-01-15T13:14:07;21.85;;;8.63;;
4742;SDS011;24293;48.154;7.748;2024-01-15T13:16:35;31.80;;;9.90;;
4742;SDS011;24293;48.154;7.748;2024-01-15T13:19:02;18.25;;;8.73;;
4742;SDS011;24293;48.154;7.748;2024-01-15T13:21:29;20.48;;;7.90;;
4742;SDS011;24293;48.154;7.748;2024-01-15T13:23:56;24.27;;;9.93;;
4742;SDS011;24293;48.154;7.748;2024-01-15T13:26:23;21.00;;;10.20;;
4742;SDS011;24293;48.154;7.748;2024-01-15T13:28:50;30.35;;;10.93;;
4742;SDS011;24293;48.154;7.748;2024-01-15T13:31:16;20.80;;;9.48;;
4742;SDS011;24293;48.154;7.748;2024-01-15T13:33:44;17.02;;;7.43;;
4742;SDS011;24293;48.154;7.748;2024-01-15T13:36:10;19.50;;;8.05;;
4742;SDS011;24293;48.154;7.748;2024-01-15T13:38:37;26.27;;;10.48;;
4742;SDS011;24293;48.154;7.748;2024-01-15T13:41:04;28.25;;;10.15;;
4742;SDS011;24293;48.154;7.748;2024-01-15T13:43:31;29.23;;;11.80;;
4742;SDS011;24293;48.154;7.748;2024-01-15T13:45:57;32.03;;;10.77;;
4742;SDS011;24293;48.154;7.748;2024-01-15T13:48:24;21.08;;;9.00;;
4742;SDS011;24293;48.154;7.748;2024-01-15T13:50:52;27.23;;;10.82;;
4742;SDS011;24293;48.154;7.748;2024-01-15T13:53:19;19.65;;;9.32;;
4742;SDS011;24293;48.154;7.748;2024-01-15T13:55:45;22.35;;;7.60;;
4742;SDS011;24293;48.154;7.748;2024-01-15T13:58:12;15.45;;;7.15;;
4742;SDS011;24293;48.154;7.748;2024-01-15T14:00:39;16.70;;;8.23;;
4742;SDS011;24293;48.154;7.748;2024-01-15T14:03:06;19.75;;;7.45;;
4742;SDS011;24293;48.154;7.748;2024-01-15T14:05:33;17.50;;;7.30;;
4742;SDS011;24293;48.154;7.748;2024-01-15T14:08:01;19.80;;;7.25;;
4742;SDS011;24293;48.154;7.748;2024-01-15T14:10:28;26.38;;;10.18;;
4742;SDS011;24293;48.154;7.748;2024-01-15T14:12:55;21.25;;;8.98;;
4742;SDS011;24293;48.154;7.748;2024-01-15T14:15:21;24.38;;;10.07;;
4742;SDS011;24293;48.154;7.748;2024-01-15T14:17:48;22.77;;;9.30;;
4742;SDS011;24293;48.154;7.748;2024-01-15T14:20:14;27.35;;;9.93;;
4742;SDS011;24293;48.154;7.748;2024-01-15T14:22:42;24.92;;;10.15;;
4742;SDS011;24293;48.154;7.748;2024-01-15T14:25:11;27.83;;;11.90;;
4742;SDS011;24293;48.154;7.748;2024-01-15T14:27:37;33.05;;;12.98;;
4742;SDS011;24293;48.154;7.748;2024-01-15T14:30:04;37.38;;;15.80;;
4742;SDS011;24293;48.154;7.748;2024-01-15T14:32:33;34.78;;;14.50;;
4742;SDS011;24293;48.154;7.748;2024-01-15T14:35:00;34.28;;;14.77;;
4742;SDS011;24293;48.154;7.748;2024-01-15T14:37:27;35.53;;;14.90;;
4742;SDS011;24293;48.154;7.748;2024-01-15T14:39:54;36.28;;;14.38;;
4742;SDS011;24293;48.154;7.748;2024-01-15T14:42:22;43.40;;;15.65;;